createdAt,value
2019-06-10T00:00:35.089Z,99.99
2019-06-10T00:01:34.978Z,99.99
2019-06-10T00:02:34.905Z,99.99
2019-06-10T00:03:34.834Z,99.99
2019-06-10T00:04:34.761Z,99.99
2019-06-10T00:05:34.690Z,99.99
2019-06-10T00:06:34.617Z,99.99
2019-06-10T00:07:34.543Z,99.99
2019-06-10T00:08:34.471Z,99.99
2019-06-10T00:09:34.398Z,99.99
2019-06-10T00:10:34.327Z,99.99
2019-06-10T00:11:34.254Z,99.99
2019-06-10T00:12:34.181Z,99.99
2019-06-10T00:13:34.107Z,99.99
2019-06-10T00:14:34.036Z,99.99
2019-06-10T00:15:33.965Z,99.99
2019-06-10T00:16:33.890Z,99.99
2019-06-10T00:17:33.818Z,99.99
2019-06-10T00:18:41.522Z,99.99
2019-06-10T00:19:33.673Z,99.99
2019-06-10T00:20:33.601Z,99.99
2019-06-10T00:21:33.529Z,99.99
2019-06-10T00:22:33.456Z,99.99
2019-06-10T00:23:33.385Z,99.99
2019-06-10T00:24:33.312Z,99.99
2019-06-10T00:25:33.236Z,99.99
2019-06-10T00:26:33.165Z,99.99
2019-06-10T00:27:33.093Z,99.99
2019-06-10T00:28:33.021Z,99.99
2019-06-10T00:29:32.948Z,99.99
2019-06-10T00:30:32.875Z,99.99
2019-06-10T00:31:32.807Z,99.99
2019-06-10T00:32:32.731Z,99.99
2019-06-10T00:33:32.667Z,99.99
2019-06-10T00:34:35.020Z,99.99
2019-06-10T00:35:32.514Z,99.99
2019-06-10T00:36:32.441Z,99.99
2019-06-10T00:37:32.367Z,99.99
2019-06-10T00:38:32.298Z,99.99
2019-06-10T00:39:32.222Z,99.99
2019-06-10T00:40:32.152Z,99.99
2019-06-10T00:41:32.081Z,99.99
2019-06-10T00:42:32.006Z,99.99
2019-06-10T00:43:31.932Z,99.99
2019-06-10T00:44:31.861Z,99.99
2019-06-10T00:45:31.788Z,99.99
2019-06-10T00:46:31.789Z,99.99
2019-06-10T00:47:31.643Z,99.99
2019-06-10T00:48:32.281Z,99.99
2019-06-10T00:49:31.743Z,99.99
2019-06-10T00:50:31.424Z,99.99
2019-06-10T00:51:31.476Z,99.99
2019-06-10T00:52:31.283Z,99.99
2019-06-10T00:53:31.642Z,99.99
2019-06-10T00:54:31.353Z,99.99
2019-06-10T00:55:31.482Z,99.99
2019-06-10T00:56:30.991Z,99.99
2019-06-10T00:57:31.449Z,99.99
2019-06-10T00:58:31.937Z,99.99
2019-06-10T00:59:31.233Z,99.99
2019-06-10T01:00:31.760Z,99.99
2019-06-10T01:01:31.302Z,99.99
2019-06-10T01:02:31.844Z,99.99
2019-06-10T01:03:31.326Z,99.99
2019-06-10T01:04:31.913Z,99.99
2019-06-10T01:05:31.277Z,99.99
2019-06-10T01:06:31.797Z,99.99
2019-06-10T01:07:31.141Z,99.99
2019-06-10T01:08:31.603Z,99.99
2019-06-10T01:09:31.072Z,99.99
2019-06-10T01:10:31.628Z,99.99
2019-06-10T01:11:31.057Z,99.99
2019-06-10T01:12:31.605Z,99.99
2019-06-10T01:13:30.937Z,99.99
2019-06-10T01:14:31.879Z,99.99
2019-06-10T01:15:31.149Z,99.99
2019-06-10T01:16:31.648Z,99.99
2019-06-10T01:17:31.096Z,99.99
2019-06-10T01:18:37.434Z,99.99
2019-06-10T01:19:31.079Z,99.99
2019-06-10T01:20:29.245Z,99.99
2019-06-10T01:21:31.176Z,99.99
2019-06-10T01:22:31.464Z,99.99
2019-06-10T01:23:30.927Z,99.99
2019-06-10T01:24:31.282Z,99.99
2019-06-10T01:25:30.988Z,99.99
2019-06-10T01:26:30.835Z,99.99
2019-06-10T01:27:28.736Z,99.99
2019-06-10T01:28:31.197Z,99.99
2019-06-10T01:29:28.589Z,99.99
2019-06-10T01:30:31.079Z,99.99
2019-06-10T01:31:28.444Z,99.99
2019-06-10T01:32:31.025Z,99.99
2019-06-10T01:33:28.298Z,99.99
2019-06-10T01:34:28.226Z,99.99
2019-06-10T01:35:30.479Z,99.99
2019-06-10T01:36:28.080Z,99.99
2019-06-10T01:37:28.007Z,99.99
2019-06-10T01:38:27.934Z,99.99
2019-06-10T01:39:27.861Z,99.99
2019-06-10T01:40:27.789Z,99.99
2019-06-10T01:41:27.717Z,99.99
2019-06-10T01:42:27.644Z,99.99
2019-06-10T01:43:27.571Z,99.99
2019-06-10T01:44:27.499Z,99.99
2019-06-10T01:45:27.425Z,99.99
2019-06-10T01:46:27.354Z,99.99
2019-06-10T01:47:27.281Z,99.99
2019-06-10T01:48:40.603Z,99.99
2019-06-10T01:49:27.135Z,99.99
2019-06-10T01:50:27.062Z,99.99
2019-06-10T01:51:26.990Z,99.99
2019-06-10T01:52:26.918Z,99.99
2019-06-10T01:53:26.844Z,99.99
2019-06-10T01:54:26.771Z,99.99
2019-06-10T01:55:26.699Z,99.99
2019-06-10T01:56:26.626Z,99.99
2019-06-10T01:57:26.555Z,99.99
2019-06-10T01:58:26.481Z,99.99
2019-06-10T01:59:26.408Z,99.99
2019-06-10T02:00:26.335Z,99.99
2019-06-10T02:01:26.261Z,99.99
2019-06-10T02:02:26.190Z,99.99
2019-06-10T02:03:26.135Z,99.99
2019-06-10T02:04:26.047Z,99.99
2019-06-10T02:05:25.969Z,99.99
2019-06-10T02:06:26.086Z,99.99
2019-06-10T02:07:25.824Z,99.99
2019-06-10T02:08:25.752Z,99.99
2019-06-10T02:09:25.700Z,99.99
2019-06-10T02:10:25.606Z,99.99
2019-06-10T02:11:25.532Z,99.99
2019-06-10T02:12:25.461Z,99.99
2019-06-10T02:13:25.388Z,99.99
2019-06-10T02:14:25.324Z,99.99
2019-06-10T02:15:25.242Z,99.99
2019-06-10T02:16:25.168Z,99.99
2019-06-10T02:17:25.094Z,99.99
2019-06-10T02:18:25.022Z,99.99
2019-06-10T02:19:24.950Z,99.99
2019-06-10T02:20:24.878Z,99.99
2019-06-10T02:21:24.805Z,99.99
2019-06-10T02:22:24.737Z,99.99
2019-06-10T02:23:24.657Z,99.99
2019-06-10T02:24:24.687Z,99.99
2019-06-10T02:25:24.516Z,99.99
2019-06-10T02:26:24.438Z,99.99
2019-06-10T02:27:24.366Z,99.99
2019-06-10T02:28:24.296Z,99.99
2019-06-10T02:29:24.221Z,99.99
2019-06-10T02:30:39.418Z,99.99
2019-06-10T02:31:30.122Z,99.99
2019-06-10T02:32:31.856Z,99.99
2019-06-10T02:33:30.662Z,99.99
2019-06-10T02:34:27.316Z,99.99
2019-06-10T02:35:30.515Z,99.99
2019-06-10T02:36:31.135Z,99.99
2019-06-10T02:37:31.329Z,99.99
2019-06-10T02:38:33.213Z,99.99
2019-06-10T02:39:32.225Z,99.99
2019-06-10T02:40:31.780Z,99.99
2019-06-10T02:41:31.196Z,99.99
2019-06-10T02:42:30.235Z,99.99
2019-06-10T02:43:31.712Z,99.99
2019-06-10T02:44:32.251Z,99.99
2019-06-10T02:45:32.034Z,99.99
2019-06-10T02:46:30.646Z,99.99
2019-06-10T02:47:26.378Z,99.99
2019-06-10T02:48:30.102Z,99.99
2019-06-10T02:49:45.541Z,99.99
2019-06-10T02:50:29.316Z,99.99
2019-06-10T02:51:28.645Z,99.99
2019-06-10T02:52:31.531Z,99.99
2019-06-10T02:53:28.481Z,99.99
2019-06-10T02:54:28.785Z,99.99
2019-06-10T02:55:28.805Z,99.99
2019-06-10T02:56:29.889Z,99.99
2019-06-10T02:57:29.584Z,99.99
2019-06-10T02:58:30.399Z,99.99
2019-06-10T02:59:28.903Z,99.99
2019-06-10T03:00:34.204Z,99.99
2019-06-10T03:01:28.394Z,99.99
2019-06-10T03:02:23.754Z,99.99
2019-06-10T03:03:33.265Z,99.99
2019-06-10T03:04:26.734Z,99.99
2019-06-10T03:05:26.829Z,99.99
2019-06-10T03:06:29.870Z,99.99
2019-06-10T03:07:26.818Z,99.99
2019-06-10T03:08:26.627Z,99.99
2019-06-10T03:09:26.410Z,99.99
2019-06-10T03:10:26.754Z,99.99
2019-06-10T03:11:27.376Z,99.99
2019-06-10T03:12:24.001Z,99.99
2019-06-10T03:13:22.789Z,99.99
2019-06-10T03:14:22.651Z,99.99
2019-06-10T03:15:24.533Z,99.99
2019-06-10T03:16:23.062Z,99.99
2019-06-10T03:17:23.193Z,99.99
2019-06-10T03:18:21.744Z,99.99
2019-06-10T03:19:39.742Z,99.99
2019-06-10T03:20:23.057Z,99.99
2019-06-10T03:21:23.065Z,99.99
2019-06-10T03:22:22.584Z,99.99
2019-06-10T03:23:22.711Z,99.99
2019-06-10T03:24:22.415Z,99.99
2019-06-10T03:25:22.598Z,99.99
2019-06-10T03:26:21.896Z,99.99
2019-06-10T03:27:21.089Z,99.99
2019-06-10T03:28:19.918Z,99.99
2019-06-10T03:29:21.228Z,99.99
2019-06-10T03:30:22.042Z,99.99
2019-06-10T03:31:22.043Z,99.99
2019-06-10T03:32:21.970Z,99.99
2019-06-10T03:33:20.837Z,99.99
2019-06-10T03:34:21.640Z,99.99
2019-06-10T03:35:19.413Z,99.99
2019-06-10T03:36:20.151Z,99.99
2019-06-10T03:37:20.921Z,99.99
2019-06-10T03:38:20.901Z,99.99
2019-06-10T03:39:19.114Z,99.99
2019-06-10T03:40:19.040Z,99.99
2019-06-10T03:41:18.969Z,99.99
2019-06-10T03:42:18.892Z,99.99
2019-06-10T03:43:18.919Z,99.99
2019-06-10T03:44:18.937Z,99.99
2019-06-10T03:45:19.147Z,99.99
2019-06-10T03:46:19.038Z,99.99
2019-06-10T03:47:19.089Z,99.99
2019-06-10T03:48:19.117Z,99.99
2019-06-10T03:49:19.153Z,99.99
2019-06-10T03:50:19.227Z,99.99
2019-06-10T03:51:19.446Z,99.99
2019-06-10T03:52:19.313Z,99.99
2019-06-10T03:54:12.886Z,99.99
2019-06-10T03:55:12.249Z,99.99
2019-06-10T03:56:12.615Z,99.99
2019-06-10T03:58:57.838Z,99.99
2019-06-10T03:59:57.764Z,99.99
2019-06-10T04:00:57.693Z,99.99
2019-06-10T04:01:57.617Z,99.99
2019-06-10T04:02:57.877Z,99.99
2019-06-10T04:03:57.471Z,99.99
2019-06-10T04:04:57.398Z,99.99
2019-06-10T04:05:57.324Z,99.99
2019-06-10T04:06:57.252Z,99.99
2019-06-10T04:07:57.178Z,99.99
2019-06-10T04:08:57.105Z,99.99
2019-06-10T04:09:57.031Z,99.99
2019-06-10T04:10:56.960Z,99.99
2019-06-10T04:11:56.887Z,99.99
2019-06-10T04:12:56.812Z,99.99
2019-06-10T04:13:56.739Z,99.99
2019-06-10T04:14:56.664Z,99.99
2019-06-10T04:15:56.593Z,99.99
2019-06-10T04:16:56.721Z,99.99
2019-06-10T04:17:56.448Z,99.99
2019-06-10T04:18:56.474Z,99.99
2019-06-10T04:20:08.179Z,99.99
2019-06-10T04:20:56.227Z,99.99
2019-06-10T04:21:56.493Z,99.99
2019-06-10T04:22:56.107Z,99.99
2019-06-10T04:24:55.936Z,99.99
2019-06-10T04:25:55.861Z,99.99
2019-06-10T04:26:55.795Z,99.99
2019-06-10T04:27:55.716Z,99.99
2019-06-10T04:28:55.642Z,99.99
2019-06-10T04:29:55.670Z,99.99
2019-06-10T04:30:55.497Z,99.99
2019-06-10T04:31:55.424Z,99.99
2019-06-10T04:32:55.350Z,99.99
2019-06-10T04:33:55.307Z,99.99
2019-06-10T04:34:55.211Z,99.99
2019-06-10T04:35:55.170Z,99.99
2019-06-10T04:36:55.058Z,99.99
2019-06-10T04:37:55.215Z,99.99
2019-06-10T04:38:54.912Z,99.99
2019-06-10T04:39:57.540Z,99.99
2019-06-10T04:40:54.767Z,99.99
2019-06-10T04:41:54.723Z,99.99
2019-06-10T04:42:54.626Z,99.99
2019-06-10T04:43:54.548Z,99.99
2019-06-10T04:44:54.475Z,99.99
2019-06-10T04:45:54.403Z,99.99
2019-06-10T04:46:54.331Z,99.99
2019-06-10T04:47:54.258Z,99.99
2019-06-10T04:48:54.186Z,99.99
2019-06-10T04:49:54.113Z,99.99
2019-06-10T04:50:54.139Z,99.99
2019-06-10T04:51:53.969Z,99.99
2019-06-10T04:52:53.895Z,99.99
2019-06-10T04:53:53.823Z,99.99
2019-06-10T04:54:53.750Z,99.99
2019-06-10T04:55:53.781Z,99.99
2019-06-10T04:56:53.606Z,99.99
2019-06-10T04:57:53.534Z,99.99
2019-06-10T04:58:53.462Z,99.99
2019-06-10T04:59:53.398Z,99.99
2019-06-10T05:00:53.415Z,99.99
2019-06-10T05:01:53.243Z,99.99
2019-06-10T05:02:53.172Z,99.99
2019-06-10T05:03:53.099Z,99.99
2019-06-10T05:04:53.283Z,99.99
2019-06-10T05:05:52.953Z,99.99
2019-06-10T05:06:52.881Z,99.99
2019-06-10T05:07:52.813Z,99.99
2019-06-10T05:08:53.743Z,99.99
2019-06-10T05:09:52.665Z,99.99
2019-06-10T05:10:52.992Z,99.99
2019-06-10T05:11:52.520Z,99.99
2019-06-10T05:12:52.682Z,99.99
2019-06-10T05:13:53.309Z,99.99
2019-06-10T05:14:52.734Z,99.99
2019-06-10T05:15:52.756Z,99.99
2019-06-10T05:16:54.346Z,99.99
2019-06-10T05:17:52.678Z,99.99
2019-06-10T05:18:54.725Z,99.99
2019-06-10T05:19:53.061Z,99.99
2019-06-10T05:20:58.242Z,99.99
2019-06-10T05:21:52.451Z,99.99
2019-06-10T05:22:52.808Z,99.99
2019-06-10T05:23:52.188Z,99.99
2019-06-10T05:24:52.752Z,99.99
2019-06-10T05:25:52.658Z,99.99
2019-06-10T05:26:52.659Z,99.99
2019-06-10T05:27:52.314Z,99.99
2019-06-10T05:28:52.392Z,99.99
2019-06-10T05:29:52.714Z,99.99
2019-06-10T05:30:53.182Z,99.99
2019-06-10T05:31:52.288Z,99.99
2019-06-10T05:32:52.366Z,99.99
2019-06-10T05:33:52.965Z,99.99
2019-06-10T05:34:52.826Z,99.99
2019-06-10T05:35:52.858Z,99.99
2019-06-10T05:36:52.569Z,99.99
2019-06-10T05:37:52.742Z,99.99
2019-06-10T05:38:52.662Z,99.99
2019-06-10T05:39:52.560Z,99.99
2019-06-10T05:40:52.124Z,99.99
2019-06-10T05:41:52.947Z,99.99
2019-06-10T05:42:50.298Z,99.99
2019-06-10T05:43:52.369Z,99.99
2019-06-10T05:44:52.290Z,99.99
2019-06-10T05:45:50.072Z,99.99
2019-06-10T05:46:52.640Z,99.99
2019-06-10T05:47:49.933Z,99.99
2019-06-10T05:48:49.858Z,99.99
2019-06-10T05:49:49.785Z,99.99
2019-06-10T05:51:00.233Z,99.99
2019-06-10T05:51:49.642Z,99.99
2019-06-10T05:52:51.927Z,99.99
2019-06-10T05:53:49.500Z,99.99
2019-06-10T05:54:49.427Z,99.99
2019-06-10T05:55:49.356Z,99.99
2019-06-10T05:56:49.389Z,99.99
2019-06-10T05:57:49.214Z,99.99
2019-06-10T05:58:49.145Z,99.99
2019-06-10T05:59:49.070Z,99.99
2019-06-10T06:00:48.997Z,99.99
2019-06-10T06:01:48.927Z,99.99
2019-06-10T06:02:48.856Z,99.99
2019-06-10T06:03:48.783Z,99.99
2019-06-10T06:04:48.713Z,99.99
2019-06-10T06:05:48.641Z,99.99
2019-06-10T06:06:48.570Z,99.99
2019-06-10T06:08:01.398Z,99.99
2019-06-10T06:08:48.427Z,99.99
2019-06-10T06:09:48.356Z,99.99
2019-06-10T06:10:48.285Z,99.99
2019-06-10T06:11:48.217Z,99.99
2019-06-10T06:12:48.143Z,99.99
2019-06-10T06:13:48.073Z,99.99
2019-06-10T06:14:48.002Z,99.99
2019-06-10T06:15:47.929Z,99.99
2019-06-10T06:16:47.857Z,99.99
2019-06-10T06:18:03.254Z,99.99
2019-06-10T06:18:47.818Z,99.99
2019-06-10T06:19:47.645Z,99.99
2019-06-10T06:20:47.576Z,99.99
2019-06-10T06:21:47.980Z,99.99
2019-06-10T06:22:47.438Z,99.99
2019-06-10T06:23:47.361Z,99.99
2019-06-10T06:24:47.288Z,99.99
2019-06-10T06:25:47.244Z,99.99
2019-06-10T06:26:47.148Z,99.99
2019-06-10T06:27:47.074Z,99.99
2019-06-10T06:28:47.003Z,99.99
2019-06-10T06:29:46.958Z,99.99
2019-06-10T06:30:46.863Z,99.99
2019-06-10T06:31:46.791Z,99.99
2019-06-10T06:32:46.718Z,99.99
2019-06-10T06:33:46.648Z,99.99
2019-06-10T06:34:46.577Z,99.99
2019-06-10T06:35:46.825Z,99.99
2019-06-10T06:36:46.441Z,99.99
2019-06-10T06:37:46.362Z,99.99
2019-06-10T06:38:46.291Z,99.99
2019-06-10T06:39:46.220Z,99.99
2019-06-10T06:40:46.149Z,99.99
2019-06-10T06:41:46.077Z,99.99
2019-06-10T06:42:46.007Z,99.99
2019-06-10T06:43:45.941Z,99.99
2019-06-10T06:44:45.865Z,99.99
2019-06-10T06:45:45.798Z,99.99
2019-06-10T06:46:45.722Z,99.99
2019-06-10T06:47:45.653Z,99.99
2019-06-10T06:48:45.581Z,99.99
2019-06-10T06:49:45.508Z,99.99
2019-06-10T06:51:00.306Z,99.99
2019-06-10T06:51:54.798Z,99.99
2019-06-10T06:53:15.599Z,99.99
2019-06-10T06:53:52.140Z,99.99
2019-06-10T06:54:45.153Z,99.99
2019-06-10T06:55:45.085Z,99.99
2019-06-10T06:56:45.011Z,99.99
2019-06-10T06:57:44.942Z,99.99
2019-06-10T06:58:44.870Z,99.99
2019-06-10T06:59:44.800Z,99.99
2019-06-10T07:01:00.666Z,99.99
2019-06-10T07:01:44.716Z,99.99
2019-06-10T07:02:44.587Z,99.99
2019-06-10T07:03:45.261Z,99.99
2019-06-10T07:04:44.444Z,99.99
2019-06-10T07:05:44.374Z,99.99
2019-06-10T07:06:44.304Z,99.99
2019-06-10T07:07:44.235Z,99.99
2019-06-10T07:08:57.756Z,99.99
2019-06-10T07:09:44.092Z,99.99
2019-06-10T07:10:44.020Z,99.99
2019-06-10T07:11:45.160Z,99.99
2019-06-10T07:12:44.108Z,99.99
2019-06-10T07:13:45.832Z,99.99
2019-06-10T07:14:44.978Z,99.99
2019-06-10T07:15:46.862Z,99.99
2019-06-10T07:16:46.189Z,99.99
2019-06-10T07:17:45.701Z,99.99
2019-06-10T07:18:49.932Z,99.99
2019-06-10T07:19:45.741Z,99.99
2019-06-10T07:20:45.652Z,99.99
2019-06-10T07:22:02.294Z,99.99
2019-06-10T07:22:46.589Z,99.99
2019-06-10T07:23:46.645Z,99.99
2019-06-10T07:24:47.335Z,99.99
2019-06-10T07:25:47.137Z,99.99
2019-06-10T07:26:50.579Z,99.99
2019-06-10T07:27:45.185Z,99.99
2019-06-10T07:28:47.035Z,99.99
2019-06-10T07:29:46.911Z,99.99
2019-06-10T07:30:50.996Z,99.99
2019-06-10T07:31:45.979Z,99.99
2019-06-10T07:32:47.112Z,99.99
2019-06-10T07:33:46.781Z,99.99
2019-06-10T07:34:46.783Z,99.83
2019-06-10T07:35:45.041Z,99.99
2019-06-10T07:36:44.019Z,98.96
2019-06-10T07:37:44.450Z,98.87
2019-06-10T07:38:47.974Z,98.72
2019-06-10T07:39:45.158Z,99.49
2019-06-10T07:40:45.210Z,99.78
2019-06-10T07:41:45.170Z,99.73
2019-06-10T07:42:45.011Z,99.99
2019-06-10T07:43:47.557Z,99.99
2019-06-10T07:44:44.005Z,99.99
2019-06-10T07:45:45.869Z,99.99
2019-06-10T07:46:43.764Z,99.59
2019-06-10T07:47:43.778Z,99.78
2019-06-10T07:48:46.273Z,98.87
2019-06-10T07:49:43.877Z,99.40
2019-06-10T07:50:44.211Z,99.21
2019-06-10T07:51:43.812Z,99.99
2019-06-10T07:52:45.645Z,99.11
2019-06-10T07:53:44.615Z,99.21
2019-06-10T07:54:43.726Z,99.01
2019-06-10T07:55:42.094Z,99.59
2019-06-10T07:56:47.549Z,98.00
2019-06-10T07:57:43.970Z,98.77
2019-06-10T07:58:44.510Z,99.73
2019-06-10T07:59:42.923Z,97.91
2019-06-10T08:00:45.675Z,99.54
2019-06-10T08:01:45.949Z,99.44
2019-06-10T08:02:42.805Z,98.87
2019-06-10T08:03:40.278Z,99.35
2019-06-10T08:04:42.924Z,98.96
2019-06-10T08:05:40.811Z,99.06
2019-06-10T08:06:42.849Z,98.87
2019-06-10T08:07:41.498Z,98.77
2019-06-10T08:08:42.295Z,99.93
2019-06-10T08:09:41.673Z,99.73
2019-06-10T08:10:42.763Z,99.99
2019-06-10T08:11:39.737Z,99.64
2019-06-10T08:12:39.642Z,99.44
2019-06-10T08:13:39.571Z,99.64
2019-06-10T08:14:39.594Z,99.99
2019-06-10T08:15:39.730Z,99.44
2019-06-10T08:16:39.883Z,99.44
2019-06-10T08:17:40.425Z,99.40
2019-06-10T08:19:03.422Z,99.99
2019-06-10T08:19:43.085Z,99.99
2019-06-10T08:20:39.200Z,99.99
2019-06-10T08:21:40.623Z,99.49
2019-06-10T08:22:44.303Z,99.21
2019-06-10T08:23:40.195Z,98.34
2019-06-10T08:24:39.387Z,98.72
2019-06-10T08:25:38.729Z,99.69
2019-06-10T08:26:39.396Z,99.59
2019-06-10T08:27:38.610Z,99.49
2019-06-10T08:28:39.635Z,98.77
2019-06-10T08:29:38.686Z,99.44
2019-06-10T08:30:39.738Z,99.73
2019-06-10T08:31:38.825Z,99.44
2019-06-10T08:32:38.240Z,99.54
2019-06-10T08:33:39.016Z,98.96
2019-06-10T08:34:38.110Z,99.06
2019-06-10T08:35:47.198Z,98.96
2019-06-10T08:36:39.496Z,98.58
2019-06-10T08:37:38.122Z,99.06
2019-06-10T08:38:38.299Z,99.64
2019-06-10T08:39:38.254Z,99.99
2019-06-10T08:40:38.310Z,99.35
2019-06-10T08:41:38.455Z,99.83
2019-06-10T08:42:38.837Z,99.83
2019-06-10T08:43:38.535Z,99.83
2019-06-10T08:44:38.725Z,99.99
2019-06-10T08:45:37.332Z,99.54
2019-06-10T08:46:37.256Z,99.99
2019-06-10T08:47:37.187Z,99.99
2019-06-10T08:48:37.115Z,99.99
2019-06-10T08:49:37.124Z,99.99
2019-06-10T08:50:37.650Z,99.99
2019-06-10T08:51:37.152Z,99.99
2019-06-10T08:52:51.638Z,99.99
2019-06-10T08:53:37.380Z,99.99
2019-06-10T08:54:38.599Z,99.99
2019-06-10T08:55:37.418Z,99.99
2019-06-10T08:56:38.366Z,99.99
2019-06-10T08:57:38.427Z,99.99
2019-06-10T08:58:38.462Z,99.99
2019-06-10T08:59:38.362Z,99.99
2019-06-10T09:00:37.380Z,99.99
2019-06-10T09:01:36.203Z,99.99
2019-06-10T09:02:36.132Z,99.99
2019-06-10T09:03:36.062Z,99.99
2019-06-10T09:04:36.018Z,99.99
2019-06-10T09:05:35.921Z,99.99
2019-06-10T09:06:35.852Z,99.99
2019-06-10T09:07:35.782Z,99.99
2019-06-10T09:08:35.710Z,99.99
2019-06-10T09:09:35.641Z,99.99
2019-06-10T09:10:35.570Z,99.99
2019-06-10T09:11:35.499Z,99.99
2019-06-10T09:12:36.715Z,99.99
2019-06-10T09:13:35.359Z,99.99
2019-06-10T09:14:35.288Z,99.99
2019-06-10T09:15:35.219Z,99.99
2019-06-10T09:16:35.147Z,99.99
2019-06-10T09:17:35.080Z,99.98
2019-06-10T09:18:35.007Z,99.99
2019-06-10T09:19:34.939Z,99.99
2019-06-10T09:20:34.870Z,99.98
2019-06-10T09:21:34.798Z,99.99
2019-06-10T09:26:45.092Z,99.99
2019-06-10T09:27:46.485Z,99.99
2019-06-10T09:28:47.182Z,99.99
2019-06-10T09:29:47.835Z,99.99
2019-06-10T09:30:47.621Z,99.98
2019-06-10T09:31:46.777Z,99.99
2019-06-10T09:32:48.509Z,99.99
2019-06-10T09:33:49.940Z,99.99
2019-06-10T09:34:48.778Z,99.99
2019-06-10T09:35:46.152Z,99.99
2019-06-10T09:36:46.628Z,99.99
2019-06-10T09:37:48.439Z,99.99
2019-06-10T09:38:48.318Z,99.78
2019-06-10T09:39:49.835Z,99.99
2019-06-10T09:40:47.503Z,99.99
2019-06-10T09:41:50.246Z,99.99
2019-06-10T09:42:48.102Z,99.99
2019-06-10T09:43:46.716Z,99.99
2019-06-10T09:44:45.892Z,99.99
2019-06-10T09:45:45.941Z,99.99
2019-06-10T09:46:46.007Z,99.99
2019-06-10T09:47:45.618Z,99.99
2019-06-10T09:48:47.900Z,99.99
2019-06-10T09:49:45.353Z,99.99
2019-06-10T09:50:48.736Z,99.99
2019-06-10T09:51:45.865Z,99.99
2019-06-10T09:52:47.539Z,99.99
2019-06-10T09:53:50.269Z,99.99
2019-06-10T09:54:45.757Z,99.99
2019-06-10T09:55:44.512Z,99.99
2019-06-10T09:58:00.068Z,99.78
2019-06-10T09:58:58.960Z,99.99
2019-06-10T09:59:58.891Z,99.99
2019-06-10T10:01:03.224Z,99.99
2019-06-10T10:02:02.720Z,99.16
2019-06-10T10:02:58.681Z,98.87
2019-06-10T10:04:00.525Z,98.97
2019-06-10T10:04:58.797Z,99.99
2019-06-10T10:06:09.794Z,99.02
2019-06-10T10:06:58.401Z,99.11
2019-06-10T10:07:58.332Z,98.29
2019-06-10T10:08:58.641Z,98.68
2019-06-10T10:09:58.194Z,98.68
2019-06-10T10:10:59.146Z,98.97
2019-06-10T10:11:58.055Z,99.64
2019-06-10T10:12:57.984Z,99.02
2019-06-10T10:13:57.922Z,99.02
2019-06-10T10:14:57.847Z,99.59
2019-06-10T10:15:57.775Z,98.44
2019-06-10T10:22:18.759Z,96.12
2019-06-10T10:23:18.690Z,95.84
2019-06-10T10:24:18.207Z,96.56
2019-06-10T10:27:09.621Z,95.64
2019-06-10T10:31:26.154Z,96.12
2019-06-10T10:32:26.084Z,95.94
2019-06-10T10:33:29.928Z,96.03
2019-06-10T10:34:25.942Z,96.51
2019-06-10T10:35:25.873Z,96.66
2019-06-10T10:40:12.303Z,94.01
2019-06-10T10:42:16.415Z,92.66
2019-06-10T10:43:25.441Z,92.85
2019-06-10T10:44:16.274Z,92.27
2019-06-10T10:45:16.202Z,92.47
2019-06-10T10:46:16.201Z,93.76
2019-06-10T10:47:16.064Z,93.86
2019-06-10T10:48:15.993Z,92.71
2019-06-10T10:49:15.924Z,94.00
2019-06-10T10:50:15.853Z,94.06
2019-06-10T10:51:15.785Z,93.38
2019-06-10T10:52:15.716Z,94.00
2019-06-10T10:53:15.643Z,93.52
2019-06-10T10:54:27.895Z,94.82
2019-06-10T10:55:15.505Z,94.24
2019-06-10T10:56:15.444Z,93.47
2019-06-10T10:57:15.366Z,93.47
2019-06-10T10:58:15.296Z,91.68
2019-06-10T10:59:15.227Z,91.20
2019-06-10T11:00:15.158Z,90.53
2019-06-10T11:01:16.363Z,91.01
2019-06-10T11:02:15.034Z,92.50
2019-06-10T11:03:14.950Z,90.86
2019-06-10T11:04:14.881Z,88.49
2019-06-10T11:05:14.815Z,89.65
2019-06-10T11:06:14.745Z,89.69
2019-06-10T11:07:14.675Z,88.92
2019-06-10T11:09:02.102Z,87.71
2019-06-10T11:10:03.887Z,87.04
2019-06-10T11:11:05.066Z,88.64
2019-06-10T11:12:02.894Z,90.13
2019-06-10T11:13:02.377Z,87.58
2019-06-10T11:14:03.495Z,89.51
2019-06-10T11:15:04.927Z,90.14
2019-06-10T11:16:03.508Z,89.31
2019-06-10T11:17:02.879Z,89.37
2019-06-10T11:19:04.062Z,88.11
2019-06-10T11:20:04.001Z,87.53
2019-06-10T11:21:05.147Z,88.79
2019-06-10T11:22:03.895Z,89.27
2019-06-10T11:23:06.615Z,89.47
2019-06-10T11:24:04.823Z,89.07
2019-06-10T11:25:03.657Z,88.59
2019-06-10T11:26:03.606Z,90.33
2019-06-10T11:27:03.524Z,91.78
2019-06-10T11:28:04.227Z,90.96
2019-06-10T11:29:03.385Z,90.38
2019-06-10T11:30:03.319Z,89.95
2019-06-10T11:31:03.965Z,91.78
2019-06-10T11:32:03.252Z,92.65
2019-06-10T11:33:03.461Z,92.85
2019-06-10T11:34:03.286Z,93.28
2019-06-10T11:35:03.029Z,94.73
2019-06-10T11:36:03.047Z,94.34
2019-06-10T11:37:02.843Z,93.66
2019-06-10T11:38:52.932Z,94.54
2019-06-10T11:39:50.273Z,94.82
2019-06-10T11:40:52.274Z,94.82
2019-06-10T11:41:52.479Z,93.96
2019-06-10T11:42:50.496Z,93.38
2019-06-10T11:43:52.938Z,93.57
2019-06-10T11:44:51.243Z,93.76
2019-06-10T11:45:55.098Z,93.91
2019-06-10T11:46:51.843Z,94.68
2019-06-10T11:47:50.899Z,93.62
2019-06-10T11:48:49.609Z,92.46
2019-06-10T11:49:52.293Z,93.62
2019-06-10T11:50:49.442Z,94.29
2019-06-10T11:51:49.372Z,93.95
2019-06-10T11:52:49.694Z,93.33
2019-06-10T11:54:53.730Z,95.50
2019-06-10T11:55:42.408Z,94.34
2019-06-10T11:56:42.172Z,93.47
2019-06-10T11:57:42.445Z,94.96
2019-06-10T11:58:42.544Z,93.18
2019-06-10T11:59:43.451Z,93.90
2019-06-10T12:00:44.004Z,91.15
2019-06-10T12:03:36.604Z,89.69
2019-06-10T12:04:33.638Z,88.71
2019-06-10T12:05:33.571Z,88.13
2019-06-10T12:06:34.124Z,83.86
2019-06-10T12:07:33.408Z,84.99
2019-06-10T12:08:33.343Z,84.93
2019-06-10T12:09:33.559Z,82.51
2019-06-10T12:10:33.251Z,81.00
2019-06-10T12:11:34.376Z,79.22
2019-06-10T12:12:33.930Z,79.50
2019-06-10T12:13:34.476Z,81.20
2019-06-10T12:14:33.785Z,76.97
2019-06-10T12:16:12.656Z,77.84
2019-06-10T12:17:15.693Z,78.97
2019-06-10T12:17:43.165Z,77.55
2019-06-10T12:18:33.229Z,77.61
2019-06-10T12:19:34.109Z,78.59
2019-06-10T12:20:33.376Z,78.27
2019-06-10T12:21:33.188Z,79.27
2019-06-10T12:22:33.058Z,78.79
2019-06-10T12:23:33.723Z,77.24
2019-06-10T12:24:33.145Z,78.50
2019-06-10T12:25:38.778Z,80.01
2019-06-10T12:26:33.362Z,82.58
2019-06-10T12:27:32.830Z,80.99
2019-06-10T12:28:32.674Z,76.64
2019-06-10T12:29:31.992Z,76.78
2019-06-10T12:30:34.419Z,78.52
2019-06-10T12:31:34.528Z,79.87
2019-06-10T12:32:33.139Z,81.07
2019-06-10T12:33:33.647Z,78.85
2019-06-10T12:34:33.275Z,81.37
2019-06-10T12:35:33.310Z,77.59
2019-06-10T12:36:31.543Z,77.86
2019-06-10T12:37:33.645Z,77.26
2019-06-10T12:38:33.442Z,73.80
2019-06-10T12:39:31.351Z,71.32
2019-06-10T12:40:31.286Z,69.84
2019-06-10T12:41:33.180Z,68.80
2019-06-10T12:42:32.845Z,69.71
2019-06-10T12:43:32.592Z,66.99
2019-06-10T12:44:33.541Z,66.76
2019-06-10T12:45:32.611Z,69.34
2019-06-10T12:46:32.702Z,69.21
2019-06-10T12:47:33.167Z,70.66
2019-06-10T12:48:33.204Z,72.57
2019-06-10T12:49:32.069Z,69.99
2019-06-10T12:50:30.663Z,67.57
2019-06-10T12:51:32.682Z,68.76
2019-06-10T12:52:32.437Z,70.70
2019-06-10T12:53:32.587Z,71.24
2019-06-10T12:54:32.538Z,72.02
2019-06-10T12:55:40.180Z,73.18
2019-06-10T12:58:30.173Z,72.39
2019-06-10T12:59:32.266Z,73.22
2019-06-10T13:00:30.037Z,74.87
2019-06-10T13:01:32.817Z,74.77
2019-06-10T13:02:33.927Z,76.51
2019-06-10T13:03:32.622Z,76.70
2019-06-10T13:04:29.780Z,81.24
2019-06-10T13:05:29.714Z,79.31
2019-06-10T13:06:29.649Z,82.21
2019-06-10T13:07:32.348Z,83.08
2019-06-10T13:08:29.617Z,81.73
2019-06-10T13:09:29.452Z,80.66
2019-06-10T13:10:29.386Z,83.08
2019-06-10T13:11:29.321Z,81.24
2019-06-10T13:12:29.263Z,82.60
2019-06-10T13:13:29.187Z,82.65
2019-06-10T13:14:29.122Z,81.88
2019-06-10T13:15:29.054Z,79.85
2019-06-10T13:16:29.596Z,81.07
2019-06-10T13:17:28.922Z,83.29
2019-06-10T13:18:28.858Z,82.03
2019-06-10T13:19:28.787Z,81.65
2019-06-10T13:20:28.720Z,82.61
2019-06-10T13:21:28.655Z,84.93
2019-06-10T13:22:28.586Z,86.76
2019-06-10T13:23:31.758Z,85.41